sensor_id;sensor_type;location;lat;lon;timestamp;pressure;altitude;pressure_sealevel;temperature;humidity
11712;BME280;5912;51.034;6.984;2023-02-21T00:02:18;56624.75;;;-142.13;73.43
11712;BME280;5912;51.034;6.984;2023-02-21T00:05:03;56769.00;;;-142.13;73.55
11712;BME280;5912;51.034;6.984;2023-02-21T00:07:46;56604.72;;;-142.13;73.64
11712;BME280;5912;51.034;6.984;2023-02-21T00:10:30;56805.06;;;-142.13;73.47
11712;BME280;5912;51.034;6.984;2023-02-21T00:13:14;56614.75;;;-142.13;73.79
11712;BME280;5912;51.034;6.984;2023-02-21T00:15:58;56620.75;;;-142.13;73.83
11712;BME280;5912;51.034;6.984;2023-02-21T00:18:42;56616.75;;;-142.13;73.94
11712;BME280;5912;51.034;6.984;2023-02-21T00:21:27;56596.72;;;-142.13;73.69
11712;BME280;5912;51.034;6.984;2023-02-21T00:24:16;56640.78;;;-142.13;73.83
11712;BME280;5912;51.034;6.984;2023-02-21T00:27:01;56612.75;;;-142.13;73.69
11712;BME280;5912;51.034;6.984;2023-02-21T00:29:49;56598.72;;;-142.13;73.99
11712;BME280;5912;51.034;6.984;2023-02-21T00:32:33;56600.72;;;-142.13;74.18
11712;BME280;5912;51.034;6.984;2023-02-21T00:35:17;56592.72;;;-142.13;73.73
11712;BME280;5912;51.034;6.984;2023-02-21T00:38:02;56610.75;;;-142.13;73.82
11712;BME280;5912;51.034;6.984;2023-02-21T00:40:46;56614.75;;;-142.13;73.75
11712;BME280;5912;51.034;6.984;2023-02-21T00:43:31;56618.75;;;-142.13;74.11
11712;BME280;5912;51.034;6.984;2023-02-21T00:46:16;56648.81;;;-142.13;74.08
11712;BME280;5912;51.034;6.984;2023-02-21T00:49:00;56616.75;;;-142.13;74.03
11712;BME280;5912;51.034;6.984;2023-02-21T00:51:44;56588.69;;;-142.13;74.37
11712;BME280;5912;51.034;6.984;2023-02-21T00:54:28;56598.72;;;-142.13;73.86
11712;BME280;5912;51.034;6.984;2023-02-21T00:57:12;56628.78;;;-142.13;74.04
11712;BME280;5912;51.034;6.984;2023-02-21T00:59:57;56616.75;;;-142.13;73.92
11712;BME280;5912;51.034;6.984;2023-02-21T01:02:41;56622.75;;;-142.13;74.29
11712;BME280;5912;51.034;6.984;2023-02-21T01:05:25;56604.72;;;-142.13;74.29
11712;BME280;5912;51.034;6.984;2023-02-21T01:08:09;56610.75;;;-142.13;74.46
11712;BME280;5912;51.034;6.984;2023-02-21T01:10:53;56614.75;;;-142.13;74.23
11712;BME280;5912;51.034;6.984;2023-02-21T01:13:37;56580.69;;;-142.13;74.55
11712;BME280;5912;51.034;6.984;2023-02-21T01:16:20;56626.78;;;-142.13;74.32
11712;BME280;5912;51.034;6.984;2023-02-21T01:19:04;56616.75;;;-142.13;74.79
11712;BME280;5912;51.034;6.984;2023-02-21T01:21:48;56620.75;;;-142.13;74.46
11712;BME280;5912;51.034;6.984;2023-02-21T01:24:32;56622.75;;;-142.13;74.73
11712;BME280;5912;51.034;6.984;2023-02-21T01:27:16;56620.75;;;-142.13;74.50
11712;BME280;5912;51.034;6.984;2023-02-21T01:30:00;56620.75;;;-142.13;74.64
11712;BME280;5912;51.034;6.984;2023-02-21T01:32:44;56638.78;;;-142.13;74.76
11712;BME280;5912;51.034;6.984;2023-02-21T01:35:28;56596.72;;;-142.13;74.97
11712;BME280;5912;51.034;6.984;2023-02-21T01:38:12;56612.75;;;-142.13;74.95
11712;BME280;5912;51.034;6.984;2023-02-21T01:40:56;56624.75;;;-142.13;75.11
11712;BME280;5912;51.034;6.984;2023-02-21T01:44:02;56600.72;;;-142.13;75.17
11712;BME280;5912;51.034;6.984;2023-02-21T01:46:47;56592.72;;;-142.13;74.90
11712;BME280;5912;51.034;6.984;2023-02-21T01:49:32;56604.72;;;-142.13;75.11
11712;BME280;5912;51.034;6.984;2023-02-21T01:52:17;56628.78;;;-142.13;74.95
11712;BME280;5912;51.034;6.984;2023-02-21T01:55:02;56584.69;;;-142.13;74.92
11712;BME280;5912;51.034;6.984;2023-02-21T01:57:47;56648.81;;;-142.13;74.76
11712;BME280;5912;51.034;6.984;2023-02-21T02:00:31;56616.75;;;-142.13;74.78
11712;BME280;5912;51.034;6.984;2023-02-21T02:03:18;56640.78;;;-142.13;74.90
11712;BME280;5912;51.034;6.984;2023-02-21T02:06:08;56610.75;;;-142.13;75.00
11712;BME280;5912;51.034;6.984;2023-02-21T02:08:53;56640.78;;;-142.13;74.77
11712;BME280;5912;51.034;6.984;2023-02-21T02:24:01;56620.75;;;-142.13;74.85
11712;BME280;5912;51.034;6.984;2023-02-21T02:29:34;56616.75;;;-142.13;75.22
11712;BME280;5912;51.034;6.984;2023-02-21T02:37:20;56594.72;;;-142.13;74.92
11712;BME280;5912;51.034;6.984;2023-02-21T02:42:26;56620.75;;;-142.13;75.25
11712;BME280;5912;51.034;6.984;2023-02-21T02:45:00;56642.78;;;-142.13;75.06
11712;BME280;5912;51.034;6.984;2023-02-21T02:47:33;56632.78;;;-142.13;75.52
11712;BME280;5912;51.034;6.984;2023-02-21T02:50:00;56612.75;;;-142.13;75.66
11712;BME280;5912;51.034;6.984;2023-02-21T02:52:27;56640.78;;;-142.13;75.61
11712;BME280;5912;51.034;6.984;2023-02-21T02:55:00;56793.06;;;-142.13;75.14
11712;BME280;5912;51.034;6.984;2023-02-21T02:57:29;56654.81;;;-142.13;75.62
11712;BME280;5912;51.034;6.984;2023-02-21T03:00:06;56616.75;;;-142.13;75.62
11712;BME280;5912;51.034;6.984;2023-02-21T03:05:13;56626.78;;;-142.13;75.37
11712;BME280;5912;51.034;6.984;2023-02-21T03:07:48;56620.75;;;-142.13;74.65
11712;BME280;5912;51.034;6.984;2023-02-21T03:16:30;56596.72;;;-142.13;73.87
11712;BME280;5912;51.034;6.984;2023-02-21T03:19:02;56616.75;;;-142.13;74.02
11712;BME280;5912;51.034;6.984;2023-02-21T03:21:40;56592.72;;;-142.13;73.89
11712;BME280;5912;51.034;6.984;2023-02-21T03:24:07;56598.72;;;-142.13;73.81
11712;BME280;5912;51.034;6.984;2023-02-21T03:26:36;56594.72;;;-142.13;73.55
11712;BME280;5912;51.034;6.984;2023-02-21T03:29:04;56620.75;;;-142.13;73.55
11712;BME280;5912;51.034;6.984;2023-02-21T03:31:38;56616.75;;;-142.13;73.99
11712;BME280;5912;51.034;6.984;2023-02-21T03:34:04;56610.75;;;-142.13;74.65
11712;BME280;5912;51.034;6.984;2023-02-21T03:36:30;56604.72;;;-142.13;74.84
11712;BME280;5912;51.034;6.984;2023-02-21T03:38:56;56600.72;;;-142.13;74.90
11712;BME280;5912;51.034;6.984;2023-02-21T03:41:21;56644.81;;;-142.13;75.44
11712;BME280;5912;51.034;6.984;2023-02-21T03:43:46;56624.75;;;-142.13;75.37
11712;BME280;5912;51.034;6.984;2023-02-21T03:46:11;56644.81;;;-142.13;75.02
11712;BME280;5912;51.034;6.984;2023-02-21T03:48:37;56624.75;;;-142.13;75.60
11712;BME280;5912;51.034;6.984;2023-02-21T03:51:03;56618.75;;;-142.13;75.50
11712;BME280;5912;51.034;6.984;2023-02-21T03:53:28;56614.75;;;-142.13;74.18
11712;BME280;5912;51.034;6.984;2023-02-21T03:55:53;56568.66;;;-142.13;73.76
11712;BME280;5912;51.034;6.984;2023-02-21T03:58:19;56628.78;;;-142.13;73.75
11712;BME280;5912;51.034;6.984;2023-02-21T04:00:44;56632.78;;;-142.13;73.57
11712;BME280;5912;51.034;6.984;2023-02-21T04:03:09;56614.75;;;-142.13;73.78
11712;BME280;5912;51.034;6.984;2023-02-21T04:05:35;56584.69;;;-142.13;73.34
11712;BME280;5912;51.034;6.984;2023-02-21T04:08:02;56612.75;;;-142.13;73.90
11712;BME280;5912;51.034;6.984;2023-02-21T04:10:27;56612.75;;;-142.13;73.58
11712;BME280;5912;51.034;6.984;2023-02-21T04:12:52;56622.75;;;-142.13;73.81
11712;BME280;5912;51.034;6.984;2023-02-21T04:15:18;56610.75;;;-142.13;73.33
11712;BME280;5912;51.034;6.984;2023-02-21T04:17:43;56644.81;;;-142.13;73.36
11712;BME280;5912;51.034;6.984;2023-02-21T04:20:09;56624.75;;;-142.13;73.53
11712;BME280;5912;51.034;6.984;2023-02-21T04:22:34;56616.75;;;-142.13;73.47
11712;BME280;5912;51.034;6.984;2023-02-21T04:24:59;56628.78;;;-142.13;73.38
11712;BME280;5912;51.034;6.984;2023-02-21T04:27:25;56606.75;;;-142.13;73.23
11712;BME280;5912;51.034;6.984;2023-02-21T04:29:51;56612.75;;;-142.13;73.35
11712;BME280;5912;51.034;6.984;2023-02-21T04:32:16;56596.72;;;-142.13;73.36
11712;BME280;5912;51.034;6.984;2023-02-21T04:34:41;56598.72;;;-142.13;73.27
11712;BME280;5912;51.034;6.984;2023-02-21T04:37:07;56602.72;;;-142.13;73.31
11712;BME280;5912;51.034;6.984;2023-02-21T04:39:32;56626.78;;;-142.13;73.22
11712;BME280;5912;51.034;6.984;2023-02-21T04:41:57;56596.72;;;-142.13;73.22
11712;BME280;5912;51.034;6.984;2023-02-21T04:44:23;56598.72;;;-142.13;73.48
11712;BME280;5912;51.034;6.984;2023-02-21T04:46:48;56596.72;;;-142.13;73.83
11712;BME280;5912;51.034;6.984;2023-02-21T04:49:14;56592.72;;;-142.13;72.99
11712;BME280;5912;51.034;6.984;2023-02-21T04:51:39;56630.78;;;-142.13;72.82
11712;BME280;5912;51.034;6.984;2023-02-21T04:54:05;56620.75;;;-142.13;73.35
11712;BME280;5912;51.034;6.984;2023-02-21T04:56:32;56598.72;;;-142.13;73.71
11712;BME280;5912;51.034;6.984;2023-02-21T04:58:57;56620.75;;;-142.13;73.39
11712;BME280;5912;51.034;6.984;2023-02-21T05:01:26;56624.75;;;-142.13;73.51
11712;BME280;5912;51.034;6.984;2023-02-21T05:03:52;56592.72;;;-142.13;73.32
11712;BME280;5912;51.034;6.984;2023-02-21T05:06:22;56604.72;;;-142.13;73.68
11712;BME280;5912;51.034;6.984;2023-02-21T05:08:48;56606.75;;;-142.13;73.38
11712;BME280;5912;51.034;6.984;2023-02-21T05:11:14;56620.75;;;-142.13;73.54
11712;BME280;5912;51.034;6.984;2023-02-21T05:13:41;56610.75;;;-142.13;73.27
11712;BME280;5912;51.034;6.984;2023-02-21T05:16:06;56604.72;;;-142.13;73.72
11712;BME280;5912;51.034;6.984;2023-02-21T05:18:32;56586.69;;;-142.13;73.15
11712;BME280;5912;51.034;6.984;2023-02-21T05:20:59;56586.69;;;-142.13;73.35
11712;BME280;5912;51.034;6.984;2023-02-21T05:23:24;56626.78;;;-142.13;73.50
11712;BME280;5912;51.034;6.984;2023-02-21T05:26:04;56606.75;;;-142.13;73.14
11712;BME280;5912;51.034;6.984;2023-02-21T05:28:30;56638.78;;;-142.13;73.31
11712;BME280;5912;51.034;6.984;2023-02-21T05:30:56;56616.75;;;-142.13;73.38
11712;BME280;5912;51.034;6.984;2023-02-21T05:33:22;56600.72;;;-142.13;73.63
11712;BME280;5912;51.034;6.984;2023-02-21T05:35:48;56586.69;;;-142.13;73.62
11712;BME280;5912;51.034;6.984;2023-02-21T05:38:15;56592.72;;;-142.13;73.48
11712;BME280;5912;51.034;6.984;2023-02-21T05:40:41;56574.69;;;-142.13;73.38
11712;BME280;5912;51.034;6.984;2023-02-21T05:43:06;56606.75;;;-142.13;73.44
11712;BME280;5912;51.034;6.984;2023-02-21T05:45:31;56620.75;;;-142.13;73.48
11712;BME280;5912;51.034;6.984;2023-02-21T05:47:57;56588.69;;;-142.13;73.22
11712;BME280;5912;51.034;6.984;2023-02-21T05:50:25;56588.69;;;-142.13;73.22
11712;BME280;5912;51.034;6.984;2023-02-21T05:52:51;56616.75;;;-142.13;73.23
11712;BME280;5912;51.034;6.984;2023-02-21T05:55:17;56594.72;;;-142.13;73.36
11712;BME280;5912;51.034;6.984;2023-02-21T05:57:42;56598.72;;;-142.13;73.64
11712;BME280;5912;51.034;6.984;2023-02-21T06:00:15;56632.78;;;-142.13;73.41
11712;BME280;5912;51.034;6.984;2023-02-21T06:02:41;56620.75;;;-142.13;73.20
11712;BME280;5912;51.034;6.984;2023-02-21T06:05:06;56588.69;;;-142.13;72.99
11712;BME280;5912;51.034;6.984;2023-02-21T06:07:31;56604.72;;;-142.13;72.85
11712;BME280;5912;51.034;6.984;2023-02-21T06:09:57;56600.72;;;-142.13;73.04
11712;BME280;5912;51.034;6.984;2023-02-21T06:12:22;56584.69;;;-142.13;73.38
11712;BME280;5912;51.034;6.984;2023-02-21T06:14:47;56582.69;;;-142.13;72.83
11712;BME280;5912;51.034;6.984;2023-02-21T06:17:13;56596.72;;;-142.13;73.01
11712;BME280;5912;51.034;6.984;2023-02-21T06:19:38;56612.75;;;-142.13;72.76
11712;BME280;5912;51.034;6.984;2023-02-21T06:22:03;56624.75;;;-142.13;74.22
11712;BME280;5912;51.034;6.984;2023-02-21T06:24:28;56636.78;;;-142.13;74.80
11712;BME280;5912;51.034;6.984;2023-02-21T06:26:54;56636.78;;;-142.13;74.90
11712;BME280;5912;51.034;6.984;2023-02-21T06:29:19;56602.72;;;-142.13;74.88
11712;BME280;5912;51.034;6.984;2023-02-21T06:31:44;56646.81;;;-142.13;75.13
11712;BME280;5912;51.034;6.984;2023-02-21T06:34:10;56630.78;;;-142.13;75.62
11712;BME280;5912;51.034;6.984;2023-02-21T06:36:35;56636.78;;;-142.13;76.09
11712;BME280;5912;51.034;6.984;2023-02-21T06:39:01;56606.75;;;-142.13;75.93
11712;BME280;5912;51.034;6.984;2023-02-21T06:41:28;56602.72;;;-142.13;76.05
11712;BME280;5912;51.034;6.984;2023-02-21T06:43:55;56652.81;;;-142.13;76.23
11712;BME280;5912;51.034;6.984;2023-02-21T06:46:23;56606.75;;;-142.13;76.90
11712;BME280;5912;51.034;6.984;2023-02-21T06:48:49;56616.75;;;-142.13;76.71
11712;BME280;5912;51.034;6.984;2023-02-21T06:51:14;56664.84;;;-142.13;76.95
11712;BME280;5912;51.034;6.984;2023-02-21T06:53:40;56644.81;;;-142.13;77.21
11712;BME280;5912;51.034;6.984;2023-02-21T06:56:06;56640.78;;;-142.13;77.28
11712;BME280;5912;51.034;6.984;2023-02-21T06:58:32;56620.75;;;-142.13;77.36
11712;BME280;5912;51.034;6.984;2023-02-21T07:00:57;56640.78;;;-142.13;77.66
11712;BME280;5912;51.034;6.984;2023-02-21T07:03:23;56656.81;;;-142.13;77.88
11712;BME280;5912;51.034;6.984;2023-02-21T07:05:48;56628.78;;;-142.13;78.07
11712;BME280;5912;51.034;6.984;2023-02-21T07:08:13;56660.81;;;-142.13;77.89
11712;BME280;5912;51.034;6.984;2023-02-21T07:10:39;56630.78;;;-142.13;77.85
11712;BME280;5912;51.034;6.984;2023-02-21T07:13:04;56636.78;;;-142.13;78.20
11712;BME280;5912;51.034;6.984;2023-02-21T07:15:29;56666.84;;;-142.13;77.98
11712;BME280;5912;51.034;6.984;2023-02-21T07:17:55;56640.78;;;-142.13;78.23
11712;BME280;5912;51.034;6.984;2023-02-21T07:20:20;56650.81;;;-142.13;78.37
11712;BME280;5912;51.034;6.984;2023-02-21T07:22:45;56648.81;;;-142.13;78.06
11712;BME280;5912;51.034;6.984;2023-02-21T07:25:15;56644.81;;;-142.13;78.27
11712;BME280;5912;51.034;6.984;2023-02-21T07:27:41;56646.81;;;-142.13;78.06
11712;BME280;5912;51.034;6.984;2023-02-21T07:30:07;56618.75;;;-142.13;78.30
11712;BME280;5912;51.034;6.984;2023-02-21T07:32:32;56648.81;;;-142.13;78.36
11712;BME280;5912;51.034;6.984;2023-02-21T07:35:35;56614.75;;;-142.13;77.81
11712;BME280;5912;51.034;6.984;2023-02-21T07:38:00;56620.75;;;-142.13;77.90
11712;BME280;5912;51.034;6.984;2023-02-21T07:40:25;56638.78;;;-142.13;76.65
11712;BME280;5912;51.034;6.984;2023-02-21T07:42:51;56596.72;;;-142.13;76.19
11712;BME280;5912;51.034;6.984;2023-02-21T07:45:16;56616.75;;;-142.13;75.90
11712;BME280;5912;51.034;6.984;2023-02-21T07:47:44;56614.75;;;-142.13;75.88
11712;BME280;5912;51.034;6.984;2023-02-21T07:50:10;56624.75;;;-142.13;76.14
11712;BME280;5912;51.034;6.984;2023-02-21T07:52:36;56636.78;;;-142.13;76.77
11712;BME280;5912;51.034;6.984;2023-02-21T07:55:01;56616.75;;;-142.13;77.28
11712;BME280;5912;51.034;6.984;2023-02-21T07:57:26;56630.78;;;-142.13;77.27
11712;BME280;5912;51.034;6.984;2023-02-21T07:59:52;56630.78;;;-142.13;77.35
11712;BME280;5912;51.034;6.984;2023-02-21T08:02:17;56622.75;;;-142.13;77.56
11712;BME280;5912;51.034;6.984;2023-02-21T08:04:43;56652.81;;;-142.13;77.49
11712;BME280;5912;51.034;6.984;2023-02-21T08:10:25;56626.78;;;-142.13;77.73
11712;BME280;5912;51.034;6.984;2023-02-21T08:12:50;56644.81;;;-142.13;77.90
11712;BME280;5912;51.034;6.984;2023-02-21T08:15:16;56618.75;;;-142.13;76.51
11712;BME280;5912;51.034;6.984;2023-02-21T08:17:42;56614.75;;;-142.13;76.30
11712;BME280;5912;51.034;6.984;2023-02-21T08:20:12;56616.75;;;-142.13;76.65
11712;BME280;5912;51.034;6.984;2023-02-21T08:22:38;56632.78;;;-142.13;76.86
11712;BME280;5912;51.034;6.984;2023-02-21T08:25:03;56612.75;;;-142.13;76.23
11712;BME280;5912;51.034;6.984;2023-02-21T08:27:29;56602.72;;;-142.13;75.52
11712;BME280;5912;51.034;6.984;2023-02-21T08:29:54;56644.81;;;-142.13;76.10
11712;BME280;5912;51.034;6.984;2023-02-21T08:32:19;56584.69;;;-142.13;75.81
11712;BME280;5912;51.034;6.984;2023-02-21T08:34:46;56614.75;;;-142.13;75.49
11712;BME280;5912;51.034;6.984;2023-02-21T08:37:11;56632.78;;;-142.13;76.38
11712;BME280;5912;51.034;6.984;2023-02-21T08:39:48;56622.75;;;-142.13;76.21
11712;BME280;5912;51.034;6.984;2023-02-21T08:42:15;56588.69;;;-142.13;75.70
11712;BME280;5912;51.034;6.984;2023-02-21T08:44:44;56594.72;;;-142.13;75.25
11712;BME280;5912;51.034;6.984;2023-02-21T08:47:11;56618.75;;;-142.13;75.65
11712;BME280;5912;51.034;6.984;2023-02-21T08:49:36;56616.75;;;-142.13;75.11
11712;BME280;5912;51.034;6.984;2023-02-21T08:52:07;56606.75;;;-142.13;75.03
11712;BME280;5912;51.034;6.984;2023-02-21T08:54:32;56578.69;;;-142.13;75.39
11712;BME280;5912;51.034;6.984;2023-02-21T08:57:32;56614.75;;;-142.13;74.94
11712;BME280;5912;51.034;6.984;2023-02-21T08:59:59;56592.72;;;-142.13;74.90
11712;BME280;5912;51.034;6.984;2023-02-21T09:02:25;56632.78;;;-142.13;75.23
11712;BME280;5912;51.034;6.984;2023-02-21T09:04:51;56604.72;;;-142.13;75.46
11712;BME280;5912;51.034;6.984;2023-02-21T09:07:18;56604.72;;;-142.13;74.79
11712;BME280;5912;51.034;6.984;2023-02-21T09:09:45;56604.72;;;-142.13;74.85
11712;BME280;5912;51.034;6.984;2023-02-21T09:12:11;56604.72;;;-142.13;74.71
11712;BME280;5912;51.034;6.984;2023-02-21T09:14:38;56618.75;;;-142.13;74.72
11712;BME280;5912;51.034;6.984;2023-02-21T09:17:05;56586.69;;;-142.13;74.62
11712;BME280;5912;51.034;6.984;2023-02-21T09:19:31;56626.78;;;-142.13;74.50
11712;BME280;5912;51.034;6.984;2023-02-21T09:21:56;56580.69;;;-142.13;74.67
11712;BME280;5912;51.034;6.984;2023-02-21T09:24:24;56600.72;;;-142.13;74.39
11712;BME280;5912;51.034;6.984;2023-02-21T09:26:57;56592.72;;;-142.13;74.18
11712;BME280;5912;51.034;6.984;2023-02-21T09:29:25;56604.72;;;-142.13;73.89
11712;BME280;5912;51.034;6.984;2023-02-21T09:31:51;56620.75;;;-142.13;73.72
11712;BME280;5912;51.034;6.984;2023-02-21T09:34:17;56596.72;;;-142.13;73.93
11712;BME280;5912;51.034;6.984;2023-02-21T09:36:42;56572.69;;;-142.13;73.96
11712;BME280;5912;51.034;6.984;2023-02-21T09:39:09;56600.72;;;-142.13;73.88
11712;BME280;5912;51.034;6.984;2023-02-21T09:41:35;56618.75;;;-142.13;73.50
11712;BME280;5912;51.034;6.984;2023-02-21T09:44:03;56604.72;;;-142.13;74.02
11712;BME280;5912;51.034;6.984;2023-02-21T09:46:37;56552.66;;;-142.13;73.88
11712;BME280;5912;51.034;6.984;2023-02-21T09:49:09;56592.72;;;-142.13;73.35
11712;BME280;5912;51.034;6.984;2023-02-21T09:51:36;56576.69;;;-142.13;73.82
11712;BME280;5912;51.034;6.984;2023-02-21T09:54:12;56584.69;;;-142.13;73.69
11712;BME280;5912;51.034;6.984;2023-02-21T09:56:40;56598.72;;;-142.13;73.55
11712;BME280;5912;51.034;6.984;2023-02-21T09:59:12;56612.75;;;-142.13;73.49
11712;BME280;5912;51.034;6.984;2023-02-21T10:10:20;56580.69;;;-142.13;73.73
11712;BME280;5912;51.034;6.984;2023-02-21T10:13:09;56568.66;;;-142.13;73.38
11712;BME280;5912;51.034;6.984;2023-02-21T10:16:09;56576.69;;;-142.13;73.27
11712;BME280;5912;51.034;6.984;2023-02-21T10:18:45;56618.75;;;-142.13;73.27
11712;BME280;5912;51.034;6.984;2023-02-21T10:21:21;56560.66;;;-142.13;73.22
11712;BME280;5912;51.034;6.984;2023-02-21T10:23:50;56566.66;;;-142.13;73.56
11712;BME280;5912;51.034;6.984;2023-02-21T10:26:28;56572.69;;;-142.13;73.31
11712;BME280;5912;51.034;6.984;2023-02-21T10:28:55;56564.66;;;-142.13;73.30
11712;BME280;5912;51.034;6.984;2023-02-21T10:31:33;56588.69;;;-142.13;73.43
11712;BME280;5912;51.034;6.984;2023-02-21T10:33:59;56572.69;;;-142.13;73.14
11712;BME280;5912;51.034;6.984;2023-02-21T10:36:26;56544.63;;;-142.13;73.00
11712;BME280;5912;51.034;6.984;2023-02-21T10:39:03;56552.66;;;-142.13;72.76
11712;BME280;5912;51.034;6.984;2023-02-21T10:41:34;56594.72;;;-142.13;72.66
11712;BME280;5912;51.034;6.984;2023-02-21T10:44:04;56572.69;;;-142.13;72.58
11712;BME280;5912;51.034;6.984;2023-02-21T10:46:38;56560.66;;;-142.13;72.19
11712;BME280;5912;51.034;6.984;2023-02-21T10:49:24;56580.69;;;-142.13;72.67
11712;BME280;5912;51.034;6.984;2023-02-21T10:52:22;56552.66;;;-142.13;72.24
11712;BME280;5912;51.034;6.984;2023-02-21T10:57:26;56536.63;;;-142.13;71.94
11712;BME280;5912;51.034;6.984;2023-02-21T10:59:52;56562.66;;;-142.13;71.35
11712;BME280;5912;51.034;6.984;2023-02-21T11:02:38;56564.66;;;-142.13;70.28
11712;BME280;5912;51.034;6.984;2023-02-21T11:07:33;56552.66;;;-142.13;70.70
11712;BME280;5912;51.034;6.984;2023-02-21T11:09:59;56562.66;;;-142.13;70.79
11712;BME280;5912;51.034;6.984;2023-02-21T11:12:28;56520.59;;;-142.13;69.74
11712;BME280;5912;51.034;6.984;2023-02-21T11:17:22;56576.69;;;-142.13;70.27
11712;BME280;5912;51.034;6.984;2023-02-21T11:19:57;56544.63;;;-142.13;69.89
11712;BME280;5912;51.034;6.984;2023-02-21T11:22:43;56556.66;;;-142.13;69.75
11712;BME280;5912;51.034;6.984;2023-02-21T11:27:43;56576.69;;;-142.13;67.67
11712;BME280;5912;51.034;6.984;2023-02-21T11:30:20;56540.63;;;-142.13;67.89
11712;BME280;5912;51.034;6.984;2023-02-21T11:32:51;56514.59;;;-142.13;68.44
11712;BME280;5912;51.034;6.984;2023-02-21T11:37:59;56552.66;;;-142.13;67.59
11712;BME280;5912;51.034;6.984;2023-02-21T11:40:40;56560.66;;;-142.13;67.54
11712;BME280;5912;51.034;6.984;2023-02-21T11:43:27;56584.69;;;-142.13;67.67
11712;BME280;5912;51.034;6.984;2023-02-21T11:51:53;56488.53;;;-142.13;67.12
11712;BME280;5912;51.034;6.984;2023-02-21T11:54:24;56512.59;;;-142.13;67.01
11712;BME280;5912;51.034;6.984;2023-02-21T11:59:58;56504.56;;;-142.13;66.57
11712;BME280;5912;51.034;6.984;2023-02-21T12:02:46;56506.56;;;-142.13;66.61
11712;BME280;5912;51.034;6.984;2023-02-21T12:05:43;56510.56;;;-142.13;66.21
11712;BME280;5912;51.034;6.984;2023-02-21T12:14:01;56548.63;;;-142.13;65.49
11712;BME280;5912;51.034;6.984;2023-02-21T12:30:26;56520.59;;;-142.13;66.43
11712;BME280;5912;51.034;6.984;2023-02-21T12:36:12;56524.59;;;-142.13;65.96
11712;BME280;5912;51.034;6.984;2023-02-21T12:41:34;56514.59;;;-142.13;65.34
11712;BME280;5912;51.034;6.984;2023-02-21T12:46:41;56504.56;;;-142.13;64.14
11712;BME280;5912;51.034;6.984;2023-02-21T12:49:19;56478.53;;;-142.13;63.68
11712;BME280;5912;51.034;6.984;2023-02-21T12:51:52;56508.56;;;-142.13;63.37
11712;BME280;5912;51.034;6.984;2023-02-21T12:54:23;56516.59;;;-142.13;63.56
11712;BME280;5912;51.034;6.984;2023-02-21T12:56:58;56532.63;;;-142.13;63.55
11712;BME280;5912;51.034;6.984;2023-02-21T13:02:27;56526.59;;;-142.13;64.45
11712;BME280;5912;51.034;6.984;2023-02-21T13:05:01;56510.56;;;-142.13;64.55
11712;BME280;5912;51.034;6.984;2023-02-21T13:07:37;56500.56;;;-142.13;64.71
11712;BME280;5912;51.034;6.984;2023-02-21T13:10:24;56498.56;;;-142.13;64.50
11712;BME280;5912;51.034;6.984;2023-02-21T13:13:03;56522.59;;;-142.13;64.45
11712;BME280;5912;51.034;6.984;2023-02-21T13:15:33;56504.56;;;-142.13;64.31
11712;BME280;5912;51.034;6.984;2023-02-21T13:18:22;56462.50;;;-142.13;64.01
11712;BME280;5912;51.034;6.984;2023-02-21T13:21:07;56492.53;;;-142.13;63.79
11712;BME280;5912;51.034;6.984;2023-02-21T13:23:42;56516.59;;;-142.13;63.75
11712;BME280;5912;51.034;6.984;2023-02-21T13:26:40;56498.56;;;-142.13;63.37
11712;BME280;5912;51.034;6.984;2023-02-21T13:29:19;56516.59;;;-142.13;62.52
11712;BME280;5912;51.034;6.984;2023-02-21T13:31:57;56472.50;;;-142.13;62.04
11712;BME280;5912;51.034;6.984;2023-02-21T13:34:27;56484.53;;;-142.13;62.00
11712;BME280;5912;51.034;6.984;2023-02-21T13:37:00;56488.53;;;-142.13;62.47
11712;BME280;5912;51.034;6.984;2023-02-21T13:39:28;56488.53;;;-142.13;62.49
11712;BME280;5912;51.034;6.984;2023-02-21T13:42:07;56496.56;;;-142.13;61.88
11712;BME280;5912;51.034;6.984;2023-02-21T13:44:40;56508.56;;;-142.13;63.02
11712;BME280;5912;51.034;6.984;2023-02-21T13:47:16;56484.53;;;-142.13;62.88
11712;BME280;5912;51.034;6.984;2023-02-21T14:02:54;56500.56;;;-142.13;61.68
11712;BME280;5912;51.034;6.984;2023-02-21T14:05:20;56488.53;;;-142.13;61.67
11712;BME280;5912;51.034;6.984;2023-02-21T14:07:59;56474.53;;;-142.13;61.46
11712;BME280;5912;51.034;6.984;2023-02-21T14:10:35;56492.53;;;-142.13;60.67
11712;BME280;5912;51.034;6.984;2023-02-21T14:13:05;56492.53;;;-142.13;61.28
11712;BME280;5912;51.034;6.984;2023-02-21T14:15:36;56498.56;;;-142.13;61.94
11712;BME280;5912;51.034;6.984;2023-02-21T14:18:03;56470.50;;;-142.13;61.85
11712;BME280;5912;51.034;6.984;2023-02-21T14:20:28;56524.59;;;-142.13;60.74
11712;BME280;5912;51.034;6.984;2023-02-21T14:22:57;56482.53;;;-142.13;60.96
11712;BME280;5912;51.034;6.984;2023-02-21T14:25:24;56508.56;;;-142.13;61.11
11712;BME280;5912;51.034;6.984;2023-02-21T14:27:51;56512.59;;;-142.13;61.73
11712;BME280;5912;51.034;6.984;2023-02-21T14:30:31;56504.56;;;-142.13;62.21
11712;BME280;5912;51.034;6.984;2023-02-21T14:33:13;56472.50;;;-142.13;61.86
11712;BME280;5912;51.034;6.984;2023-02-21T14:35:50;56476.53;;;-142.13;61.19
11712;BME280;5912;51.034;6.984;2023-02-21T14:38:23;56468.50;;;-142.13;59.65
11712;BME280;5912;51.034;6.984;2023-02-21T14:46:52;56436.47;;;-142.13;60.19
11712;BME280;5912;51.034;6.984;2023-02-21T14:49:48;56460.50;;;-142.13;60.13
11712;BME280;5912;51.034;6.984;2023-02-21T14:52:41;56468.50;;;-142.13;58.09
11712;BME280;5912;51.034;6.984;2023-02-21T14:55:33;56444.47;;;-142.13;56.30
11712;BME280;5912;51.034;6.984;2023-02-21T15:03:24;56428.44;;;-142.13;55.51
11712;BME280;5912;51.034;6.984;2023-02-21T15:06:04;56448.47;;;-142.13;56.46
11712;BME280;5912;51.034;6.984;2023-02-21T15:08:40;56482.53;;;-142.13;57.42
11712;BME280;5912;51.034;6.984;2023-02-21T15:11:16;56460.50;;;-142.13;57.84
11712;BME280;5912;51.034;6.984;2023-02-21T15:13:42;56542.63;;;-142.13;57.97
11712;BME280;5912;51.034;6.984;2023-02-21T15:16:09;56488.53;;;-142.13;58.62
11712;BME280;5912;51.034;6.984;2023-02-21T15:18:41;56478.53;;;-142.13;59.36